createdAt,value
2019-03-17T00:01:25.236Z,13.06
2019-03-17T00:02:59.578Z,13.04
2019-03-17T00:04:33.866Z,13.02
2019-03-17T00:06:08.158Z,13.00
2019-03-17T00:07:42.427Z,13.01
2019-03-17T00:09:16.649Z,13.00
2019-03-17T00:10:52.651Z,13.04
2019-03-17T00:12:26.753Z,13.07
2019-03-17T00:14:00.961Z,13.09
2019-03-17T00:15:35.292Z,13.10
2019-03-17T00:17:09.513Z,13.10
2019-03-17T00:18:43.797Z,13.10
2019-03-17T00:20:18.020Z,13.04
2019-03-17T00:21:52.358Z,13.12
2019-03-17T00:23:26.649Z,13.16
2019-03-17T00:25:09.320Z,13.19
2019-03-17T00:26:36.744Z,13.21
2019-03-17T00:28:10.990Z,13.28
2019-03-17T00:29:45.273Z,13.34
2019-03-17T00:31:24.175Z,13.38
2019-03-17T00:32:55.453Z,13.39
2019-03-17T00:34:29.784Z,13.39
2019-03-17T00:36:04.031Z,13.38
2019-03-17T00:37:38.257Z,13.37
2019-03-17T00:39:12.602Z,13.37
2019-03-17T00:40:46.989Z,13.38
2019-03-17T00:42:21.294Z,13.40
2019-03-17T00:43:55.638Z,13.39
2019-03-17T00:45:29.834Z,13.37
2019-03-17T00:47:04.076Z,13.40
2019-03-17T00:48:38.284Z,13.41
2019-03-17T00:50:12.878Z,13.43
2019-03-17T00:51:47.162Z,13.42
2019-03-17T00:53:21.847Z,13.44
2019-03-17T00:54:56.115Z,13.41
2019-03-17T00:56:30.368Z,13.39
2019-03-17T00:58:04.616Z,13.38
2019-03-17T00:59:38.822Z,13.36
2019-03-17T01:01:13.035Z,13.32
2019-03-17T01:02:47.352Z,13.32
2019-03-17T01:04:21.587Z,13.34
2019-03-17T01:05:55.807Z,13.37
2019-03-17T01:07:30.319Z,13.35
2019-03-17T01:09:05.745Z,13.32
2019-03-17T01:10:39.956Z,13.30
2019-03-17T01:12:14.156Z,13.29
2019-03-17T01:13:48.384Z,13.29
2019-03-17T01:15:22.624Z,13.28
2019-03-17T01:16:56.905Z,13.28
2019-03-17T01:18:31.153Z,13.37
2019-03-17T01:20:08.029Z,13.43
2019-03-17T01:21:42.327Z,13.44
2019-03-17T01:23:16.626Z,13.44
2019-03-17T01:24:50.887Z,13.43
2019-03-17T01:26:25.073Z,13.44
2019-03-17T01:27:59.318Z,13.49
2019-03-17T01:29:33.469Z,13.53
2019-03-17T01:31:07.767Z,13.58
2019-03-17T01:32:41.962Z,13.59
2019-03-17T01:34:16.245Z,13.59
2019-03-17T01:35:50.446Z,13.61
2019-03-17T01:37:24.711Z,13.58
2019-03-17T01:38:58.933Z,13.59
2019-03-17T01:40:33.269Z,13.60
2019-03-17T01:42:07.464Z,13.61
2019-03-17T01:43:41.735Z,13.62
2019-03-17T01:45:15.975Z,13.63
2019-03-17T01:46:50.296Z,13.65
2019-03-17T01:48:24.518Z,13.64
2019-03-17T01:49:58.753Z,13.59
2019-03-17T01:51:33.025Z,13.57
2019-03-17T01:53:07.245Z,13.56
2019-03-17T01:54:41.905Z,13.58
2019-03-17T01:56:16.149Z,13.58
2019-03-17T01:57:50.461Z,13.56
2019-03-17T01:59:24.651Z,13.55
2019-03-17T02:00:58.945Z,13.55
2019-03-17T02:02:33.089Z,13.49
2019-03-17T02:04:07.362Z,13.48
2019-03-17T02:05:41.548Z,13.46
2019-03-17T02:07:15.750Z,13.44
2019-03-17T02:08:50.602Z,13.40
2019-03-17T02:10:24.786Z,13.37
2019-03-17T02:11:58.986Z,13.33
2019-03-17T02:13:33.210Z,13.27
2019-03-17T02:15:08.439Z,13.22
2019-03-17T02:16:42.707Z,13.22
2019-03-17T02:18:16.907Z,13.21
2019-03-17T02:19:51.130Z,13.19
2019-03-17T02:21:25.369Z,13.17
2019-03-17T02:22:59.636Z,13.17
2019-03-17T02:24:33.993Z,13.17
2019-03-17T02:26:08.280Z,13.20
2019-03-17T02:27:42.502Z,13.20
2019-03-17T02:29:16.737Z,13.18
2019-03-17T02:30:51.026Z,13.17
2019-03-17T02:32:25.225Z,13.16
2019-03-17T02:33:59.459Z,13.16
2019-03-17T02:35:39.563Z,13.15
2019-03-17T02:37:09.697Z,13.12
2019-03-17T02:38:43.966Z,13.11
2019-03-17T02:40:18.203Z,13.08
2019-03-17T02:41:52.412Z,13.04
2019-03-17T02:43:26.609Z,13.01
2019-03-17T02:45:00.894Z,12.98
2019-03-17T02:46:35.140Z,12.96
2019-03-17T02:48:09.366Z,12.94
2019-03-17T02:49:43.566Z,12.91
2019-03-17T02:51:17.796Z,12.87
2019-03-17T02:52:52.267Z,12.83
2019-03-17T02:54:26.521Z,12.78
2019-03-17T02:56:00.761Z,12.76
2019-03-17T02:57:35.650Z,12.74
2019-03-17T02:59:09.930Z,12.72
2019-03-17T03:00:44.205Z,12.69
2019-03-17T03:02:18.403Z,12.69
2019-03-17T03:03:52.692Z,12.65
2019-03-17T03:05:26.962Z,12.64
2019-03-17T03:07:01.227Z,12.63
2019-03-17T03:08:35.406Z,12.61
2019-03-17T03:10:10.264Z,12.60
2019-03-17T03:11:44.533Z,12.58
2019-03-17T03:13:18.737Z,12.57
2019-03-17T03:14:52.933Z,12.54
2019-03-17T03:16:27.206Z,12.54
2019-03-17T03:18:01.430Z,12.54
2019-03-17T03:19:35.694Z,12.51
2019-03-17T03:21:09.900Z,12.49
2019-03-17T03:22:44.187Z,12.45
2019-03-17T03:24:18.417Z,12.46
2019-03-17T03:25:52.639Z,12.43
2019-03-17T03:27:26.913Z,12.42
2019-03-17T03:29:01.118Z,12.44
2019-03-17T03:30:35.401Z,12.43
2019-03-17T03:32:09.730Z,12.46
2019-03-17T03:33:43.976Z,12.46
2019-03-17T03:35:18.163Z,12.44
2019-03-17T03:36:52.463Z,12.48
2019-03-17T03:38:26.794Z,12.47
2019-03-17T03:40:00.671Z,12.45
2019-03-17T03:41:35.663Z,12.38
2019-03-17T03:43:09.873Z,12.33
2019-03-17T03:44:44.098Z,12.33
2019-03-17T03:46:18.353Z,12.31
2019-03-17T03:47:52.563Z,12.29
2019-03-17T03:49:26.917Z,12.29
2019-03-17T03:51:01.115Z,12.30
2019-03-17T03:52:35.355Z,12.24
2019-03-17T03:54:09.622Z,12.21
2019-03-17T03:55:43.881Z,12.20
2019-03-17T03:57:18.105Z,12.17
2019-03-17T03:58:52.331Z,12.14
2019-03-17T04:00:26.612Z,12.10
2019-03-17T04:02:00.876Z,12.10
2019-03-17T04:03:35.116Z,12.10
2019-03-17T04:05:09.402Z,12.09
2019-03-17T04:06:43.631Z,12.08
2019-03-17T04:08:17.872Z,12.08
2019-03-17T04:09:52.092Z,12.06
2019-03-17T04:11:26.567Z,12.07
2019-03-17T04:13:00.857Z,12.06
2019-03-17T04:14:35.092Z,12.06
2019-03-17T04:16:09.327Z,12.05
2019-03-17T04:17:43.533Z,12.06
2019-03-17T04:19:17.740Z,12.04
2019-03-17T04:20:52.029Z,12.04
2019-03-17T04:22:26.299Z,12.03
2019-03-17T04:24:00.522Z,11.98
2019-03-17T04:25:34.736Z,11.94
2019-03-17T04:27:09.107Z,11.87
2019-03-17T04:28:46.239Z,11.84
2019-03-17T04:30:20.458Z,11.75
2019-03-17T04:31:54.770Z,11.69
2019-03-17T04:33:28.997Z,11.70
2019-03-17T04:35:03.825Z,11.68
2019-03-17T04:36:40.790Z,11.65
2019-03-17T04:38:15.110Z,11.66
2019-03-17T04:39:49.431Z,11.68
2019-03-17T04:41:23.703Z,11.72
2019-03-17T04:42:58.242Z,11.23
2019-03-17T04:44:32.506Z,11.72
2019-03-17T04:46:06.711Z,11.73
2019-03-17T04:47:40.933Z,11.76
2019-03-17T04:49:15.206Z,11.75
2019-03-17T04:50:49.466Z,11.75
2019-03-17T04:52:23.673Z,11.74
2019-03-17T04:53:57.905Z,11.74
2019-03-17T04:55:32.169Z,11.75
2019-03-17T04:57:08.677Z,11.73
2019-03-17T04:58:42.992Z,11.65
2019-03-17T05:00:17.789Z,11.66
2019-03-17T05:01:52.001Z,11.66
2019-03-17T05:03:26.308Z,11.67
2019-03-17T05:05:00.547Z,11.65
2019-03-17T05:06:34.738Z,11.65
2019-03-17T05:08:08.965Z,11.64
2019-03-17T05:09:43.161Z,11.66
2019-03-17T05:11:17.412Z,11.58
2019-03-17T05:12:52.146Z,11.67
2019-03-17T05:14:26.339Z,11.70
2019-03-17T05:16:00.533Z,11.77
2019-03-17T05:17:34.324Z,11.81
2019-03-17T05:19:08.534Z,11.86
2019-03-17T05:20:42.763Z,11.93
2019-03-17T05:22:16.949Z,12.01
2019-03-17T05:23:51.260Z,12.08
2019-03-17T05:25:25.549Z,12.15
2019-03-17T05:26:59.744Z,12.22
2019-03-17T05:28:34.025Z,12.31
2019-03-17T05:30:10.828Z,12.37
2019-03-17T05:31:45.030Z,12.43
2019-03-17T05:33:19.348Z,12.50
2019-03-17T05:34:53.570Z,12.55
2019-03-17T05:36:27.835Z,12.55
2019-03-17T05:38:02.141Z,12.57
2019-03-17T05:39:36.445Z,12.60
2019-03-17T05:41:10.730Z,12.67
2019-03-17T05:42:44.981Z,12.75
2019-03-17T05:44:19.314Z,12.83
2019-03-17T05:45:53.497Z,12.91
2019-03-17T05:47:27.722Z,12.99
2019-03-17T05:49:01.935Z,13.02
2019-03-17T05:50:36.166Z,13.31
2019-03-17T05:52:10.493Z,14.09
2019-03-17T05:53:44.697Z,14.93
2019-03-17T05:55:18.989Z,15.58
2019-03-17T05:56:53.273Z,16.15
2019-03-17T05:58:27.611Z,16.51
2019-03-17T06:00:01.931Z,16.70
2019-03-17T06:01:36.203Z,17.00
2019-03-17T06:03:10.410Z,17.44
2019-03-17T06:04:44.627Z,17.85
2019-03-17T06:06:18.873Z,18.21
2019-03-17T06:07:53.116Z,18.64
2019-03-17T06:09:27.527Z,19.10
2019-03-17T06:11:01.740Z,19.52
2019-03-17T06:12:36.038Z,19.56
2019-03-17T06:14:10.674Z,20.29
2019-03-17T06:15:44.966Z,20.50
2019-03-17T06:17:19.309Z,20.71
2019-03-17T06:18:53.522Z,20.75
2019-03-17T06:20:27.813Z,20.95
2019-03-17T06:22:02.126Z,21.33
2019-03-17T06:23:36.458Z,21.66
2019-03-17T06:25:10.755Z,22.03
2019-03-17T06:26:45.041Z,22.38
2019-03-17T06:28:21.561Z,22.75
2019-03-17T06:29:55.262Z,22.89
2019-03-17T06:31:29.570Z,22.77
2019-03-17T06:33:03.817Z,22.72
2019-03-17T06:34:38.049Z,22.58
2019-03-17T06:36:12.276Z,22.60
2019-03-17T06:37:46.544Z,22.87
2019-03-17T06:39:20.803Z,23.08
2019-03-17T06:40:55.008Z,23.01
2019-03-17T06:42:29.223Z,22.84
2019-03-17T06:44:03.481Z,22.40
2019-03-17T06:45:37.795Z,22.59
2019-03-17T06:47:12.279Z,23.01
2019-03-17T06:48:46.507Z,23.40
2019-03-17T06:50:21.826Z,23.73
2019-03-17T06:51:57.714Z,23.77
2019-03-17T06:53:32.020Z,24.04
2019-03-17T06:55:09.491Z,23.93
2019-03-17T06:56:46.366Z,24.09
2019-03-17T06:58:20.607Z,24.36
2019-03-17T06:59:54.861Z,24.74
2019-03-17T07:01:29.143Z,24.39
2019-03-17T07:03:03.371Z,24.54
2019-03-17T07:04:38.134Z,25.06
2019-03-17T07:06:12.427Z,25.44
2019-03-17T07:07:46.689Z,25.64
2019-03-17T07:09:22.233Z,25.71
2019-03-17T07:10:56.468Z,25.95
2019-03-17T07:12:30.676Z,25.78
2019-03-17T07:14:04.930Z,25.65
2019-03-17T07:15:39.448Z,25.48
2019-03-17T07:17:13.733Z,25.46
2019-03-17T07:18:47.966Z,25.12
2019-03-17T07:20:22.240Z,25.32
2019-03-17T07:21:56.492Z,25.77
2019-03-17T07:23:30.777Z,26.11
2019-03-17T07:25:07.272Z,26.33
2019-03-17T07:26:41.451Z,26.61
2019-03-17T07:28:15.691Z,26.39
2019-03-17T07:29:49.889Z,25.97
2019-03-17T07:31:24.158Z,26.54
2019-03-17T07:32:58.360Z,26.46
2019-03-17T07:34:32.592Z,26.67
2019-03-17T07:36:06.863Z,25.95
2019-03-17T07:37:41.149Z,26.06
2019-03-17T07:39:15.374Z,26.21
2019-03-17T07:40:49.594Z,26.28
2019-03-17T07:42:23.828Z,26.27
2019-03-17T07:43:58.068Z,26.50
2019-03-17T07:45:32.288Z,26.62
2019-03-17T07:47:06.504Z,26.55
2019-03-17T07:48:42.849Z,26.35
2019-03-17T07:50:17.212Z,26.37
2019-03-17T07:51:51.442Z,26.59
2019-03-17T07:53:25.711Z,26.79
2019-03-17T07:54:59.939Z,27.12
2019-03-17T07:56:34.216Z,27.55
2019-03-17T07:58:08.520Z,27.74
2019-03-17T07:59:42.784Z,27.49
2019-03-17T08:01:17.106Z,27.45
2019-03-17T08:02:51.445Z,27.65
2019-03-17T08:04:25.665Z,27.45
2019-03-17T08:05:59.888Z,26.93
2019-03-17T08:07:34.098Z,26.79
2019-03-17T08:09:08.909Z,27.02
2019-03-17T08:10:43.169Z,27.39
2019-03-17T08:12:20.183Z,27.39
2019-03-17T08:13:54.420Z,27.42
2019-03-17T08:15:28.603Z,27.73
2019-03-17T08:17:03.121Z,27.97
2019-03-17T08:18:37.344Z,28.18
2019-03-17T08:20:12.691Z,28.60
2019-03-17T08:21:46.899Z,28.73
2019-03-17T08:23:21.121Z,28.89
2019-03-17T08:24:55.419Z,28.77
2019-03-17T08:26:29.729Z,28.75
2019-03-17T08:28:03.949Z,28.77
2019-03-17T08:29:38.216Z,28.62
2019-03-17T08:31:12.452Z,28.74
2019-03-17T08:32:46.745Z,28.88
2019-03-17T08:34:20.975Z,28.36
2019-03-17T08:35:55.256Z,28.10
2019-03-17T08:37:29.536Z,28.20
2019-03-17T08:39:05.310Z,28.14
2019-03-17T08:40:39.513Z,28.27
2019-03-17T08:42:13.850Z,27.92
2019-03-17T08:43:54.224Z,28.07
2019-03-17T08:45:23.989Z,28.38
2019-03-17T08:46:58.280Z,28.56
2019-03-17T08:48:32.580Z,28.40
2019-03-17T08:50:09.587Z,28.44
2019-03-17T08:51:43.792Z,28.20
2019-03-17T08:53:18.092Z,28.49
2019-03-17T08:54:52.354Z,28.93
2019-03-17T08:56:26.645Z,28.50
2019-03-17T08:58:00.930Z,28.57
2019-03-17T08:59:35.184Z,29.05
2019-03-17T09:01:09.466Z,29.50
2019-03-17T09:02:43.759Z,29.60
2019-03-17T09:04:18.041Z,29.83
2019-03-17T09:05:52.276Z,29.82
2019-03-17T09:07:27.835Z,29.51
2019-03-17T09:09:02.695Z,29.45
2019-03-17T09:10:36.914Z,29.48
2019-03-17T09:12:11.135Z,29.96
2019-03-17T09:13:45.452Z,30.24
2019-03-17T09:15:19.674Z,30.07
2019-03-17T09:16:53.961Z,30.25
2019-03-17T09:18:28.510Z,30.55
2019-03-17T09:20:02.773Z,29.71
2019-03-17T09:21:37.013Z,29.60
2019-03-17T09:23:11.293Z,29.74
2019-03-17T09:24:45.480Z,29.41
2019-03-17T09:26:19.697Z,29.42
2019-03-17T09:27:53.932Z,29.39
2019-03-17T09:29:28.178Z,29.34
2019-03-17T09:31:04.786Z,28.79
2019-03-17T09:32:38.349Z,28.31
2019-03-17T09:34:12.569Z,28.03
2019-03-17T09:35:46.838Z,28.45
2019-03-17T09:37:21.115Z,28.94
2019-03-17T09:38:55.345Z,29.41
2019-03-17T09:40:29.629Z,29.72
2019-03-17T09:42:03.917Z,29.73
2019-03-17T09:43:38.221Z,29.71
2019-03-17T09:45:14.101Z,29.95
2019-03-17T09:46:48.296Z,30.15
2019-03-17T09:48:22.510Z,29.08
2019-03-17T09:49:56.751Z,28.28
2019-03-17T09:51:31.018Z,28.34
2019-03-17T09:53:05.906Z,28.40
2019-03-17T09:54:40.124Z,28.42
2019-03-17T09:56:14.394Z,28.59
2019-03-17T09:57:48.670Z,28.98
2019-03-17T09:59:22.882Z,29.07
2019-03-17T10:00:57.109Z,28.93
2019-03-17T10:02:31.311Z,28.63
2019-03-17T10:04:05.602Z,28.11
2019-03-17T10:05:39.818Z,27.77
2019-03-17T10:07:14.054Z,27.57
2019-03-17T10:08:59.531Z,27.34
2019-03-17T10:10:24.359Z,26.92
2019-03-17T10:11:58.565Z,26.78
2019-03-17T10:13:32.842Z,26.67
2019-03-17T10:15:10.278Z,26.41
2019-03-17T10:16:44.545Z,26.03
2019-03-17T10:18:18.756Z,25.70
2019-03-17T10:19:53.407Z,25.29
2019-03-17T10:21:27.643Z,25.05
2019-03-17T10:23:01.861Z,24.99
2019-03-17T10:24:36.130Z,24.95
2019-03-17T10:26:10.462Z,24.94
2019-03-17T10:27:44.787Z,24.73
2019-03-17T10:29:19.045Z,24.56
2019-03-17T10:30:53.249Z,24.50
2019-03-17T10:32:27.451Z,24.36
2019-03-17T10:34:01.762Z,24.35
2019-03-17T10:35:35.970Z,24.30
2019-03-17T10:37:10.245Z,24.14
2019-03-17T10:38:44.550Z,24.03
2019-03-17T10:40:21.058Z,24.19
2019-03-17T10:41:55.319Z,24.30
2019-03-17T10:43:29.642Z,24.22
2019-03-17T10:45:04.945Z,24.04
2019-03-17T10:46:39.149Z,24.18
2019-03-17T10:48:13.393Z,24.37
2019-03-17T10:49:47.665Z,23.89
2019-03-17T10:51:21.909Z,24.23
2019-03-17T10:52:56.134Z,24.34
2019-03-17T10:54:30.373Z,24.36
2019-03-17T10:56:04.731Z,24.51
2019-03-17T10:57:38.994Z,24.35
2019-03-17T10:59:13.213Z,24.19
2019-03-17T11:00:47.399Z,24.17
2019-03-17T11:02:21.717Z,24.30
2019-03-17T11:03:55.917Z,24.38
2019-03-17T11:05:30.708Z,24.50
2019-03-17T11:07:04.965Z,24.39
2019-03-17T11:08:39.210Z,24.46
2019-03-17T11:10:14.590Z,24.63
2019-03-17T11:11:48.848Z,24.78
2019-03-17T11:13:23.115Z,24.85
2019-03-17T11:14:57.315Z,24.91
2019-03-17T11:16:31.537Z,24.96
2019-03-17T11:18:05.845Z,24.83
2019-03-17T11:19:40.208Z,24.77
2019-03-17T11:21:14.916Z,24.80
2019-03-17T11:22:49.184Z,24.75
2019-03-17T11:24:23.474Z,24.70
2019-03-17T11:25:57.703Z,24.60
2019-03-17T11:27:31.921Z,24.47
2019-03-17T11:29:06.187Z,24.47
2019-03-17T11:30:40.410Z,24.45
2019-03-17T11:32:14.630Z,24.52
2019-03-17T11:33:48.838Z,24.54
2019-03-17T11:35:23.093Z,24.54
2019-03-17T11:36:57.300Z,24.50
2019-03-17T11:38:31.508Z,24.53
2019-03-17T11:40:20.029Z,24.44
2019-03-17T11:41:54.371Z,24.46
2019-03-17T11:43:28.571Z,24.36
2019-03-17T11:45:02.781Z,24.28
2019-03-17T11:46:36.985Z,24.19
2019-03-17T11:48:11.262Z,24.27
2019-03-17T11:49:46.282Z,24.30
2019-03-17T11:51:20.710Z,24.33
2019-03-17T11:52:55.081Z,24.37
2019-03-17T11:54:29.377Z,24.35
2019-03-17T11:56:03.673Z,24.41
2019-03-17T11:57:37.988Z,24.44
2019-03-17T11:59:12.291Z,24.47
2019-03-17T12:00:46.615Z,24.51
2019-03-17T12:02:26.356Z,24.58
2019-03-17T12:03:56.875Z,24.46
2019-03-17T12:05:31.170Z,24.34
2019-03-17T12:07:05.429Z,24.34
2019-03-17T12:08:39.649Z,24.34
2019-03-17T12:10:23.816Z,24.47
2019-03-17T12:11:58.020Z,24.57
2019-03-17T12:13:32.325Z,24.54
2019-03-17T12:15:12.694Z,24.55
2019-03-17T12:16:47.013Z,24.60
2019-03-17T12:18:21.925Z,24.69
2019-03-17T12:19:56.146Z,24.74
2019-03-17T12:21:30.659Z,24.80
2019-03-17T12:23:04.959Z,24.76
2019-03-17T12:24:39.170Z,24.70
2019-03-17T12:26:13.380Z,24.62
2019-03-17T12:27:47.739Z,24.61
2019-03-17T12:29:21.944Z,24.51
2019-03-17T12:30:56.178Z,24.46
2019-03-17T12:32:30.379Z,24.45
2019-03-17T12:34:04.663Z,24.46
2019-03-17T12:35:38.937Z,24.42
2019-03-17T12:37:13.218Z,24.42
2019-03-17T12:38:47.418Z,24.38
2019-03-17T12:40:21.677Z,24.47
2019-03-17T12:41:55.963Z,24.56
2019-03-17T12:43:30.177Z,24.63
2019-03-17T12:45:06.381Z,24.71
2019-03-17T12:46:40.706Z,24.75
2019-03-17T12:48:15.839Z,24.81
2019-03-17T12:49:50.086Z,24.85
2019-03-17T12:51:24.453Z,24.87
2019-03-17T12:53:01.555Z,24.94
2019-03-17T12:54:36.924Z,24.93
2019-03-17T12:56:11.154Z,24.76
2019-03-17T12:57:46.140Z,24.69
2019-03-17T12:59:20.449Z,24.58
2019-03-17T13:00:54.678Z,24.54
2019-03-17T13:02:28.982Z,24.57
2019-03-17T13:04:03.293Z,24.61
2019-03-17T13:05:37.570Z,24.63
2019-03-17T13:07:11.865Z,24.65
2019-03-17T13:08:46.080Z,24.65
2019-03-17T13:10:22.383Z,24.61
2019-03-17T13:11:58.400Z,24.51
2019-03-17T13:13:32.681Z,24.45
2019-03-17T13:15:09.595Z,24.48
2019-03-17T13:16:43.847Z,24.57
2019-03-17T13:18:18.091Z,24.63
2019-03-17T13:19:52.406Z,24.62
2019-03-17T13:21:26.598Z,24.55
2019-03-17T13:23:01.388Z,24.46
2019-03-17T13:24:35.696Z,24.48
2019-03-17T13:26:10.384Z,24.50
2019-03-17T13:27:44.915Z,24.56
2019-03-17T13:29:19.117Z,24.63
2019-03-17T13:30:53.305Z,24.63
2019-03-17T13:32:27.554Z,24.58
2019-03-17T13:34:01.774Z,24.60
2019-03-17T13:35:36.089Z,24.64
2019-03-17T13:37:10.317Z,24.68
2019-03-17T13:38:46.846Z,24.67
2019-03-17T13:40:29.574Z,24.66
2019-03-17T13:41:57.479Z,24.61
2019-03-17T13:43:31.706Z,24.63
2019-03-17T13:45:08.630Z,24.60
2019-03-17T13:46:42.910Z,24.59
2019-03-17T13:48:17.102Z,24.63
2019-03-17T13:49:51.432Z,24.68
2019-03-17T13:51:25.703Z,24.75
2019-03-17T13:52:59.916Z,24.76
2019-03-17T13:54:34.150Z,24.72
2019-03-17T13:56:08.410Z,24.65
2019-03-17T13:58:00.322Z,24.65
2019-03-17T13:59:34.613Z,24.63
2019-03-17T14:01:08.904Z,24.61
2019-03-17T14:02:43.106Z,24.63
2019-03-17T14:04:17.982Z,24.64
2019-03-17T14:05:52.434Z,24.63
2019-03-17T14:07:26.745Z,24.64
2019-03-17T14:09:01.064Z,24.66
2019-03-17T14:10:40.850Z,24.68
2019-03-17T14:12:11.307Z,24.63
2019-03-17T14:13:45.586Z,24.61
2019-03-17T14:15:19.880Z,24.59
2019-03-17T14:16:54.100Z,24.61
2019-03-17T14:18:28.447Z,24.63
2019-03-17T14:20:02.827Z,24.63
2019-03-17T14:21:37.036Z,24.63
2019-03-17T14:23:11.907Z,24.60
2019-03-17T14:24:46.225Z,24.54
2019-03-17T14:26:20.458Z,24.56
2019-03-17T14:27:54.774Z,24.61
2019-03-17T14:29:28.930Z,24.65
2019-03-17T14:31:03.186Z,24.72
2019-03-17T14:32:37.495Z,24.43
2019-03-17T14:34:11.814Z,24.75
2019-03-17T14:35:46.146Z,24.73
2019-03-17T14:37:20.378Z,24.68
2019-03-17T14:38:54.639Z,24.65
2019-03-17T14:40:28.908Z,24.66
2019-03-17T14:42:03.208Z,24.67
2019-03-17T14:43:37.496Z,24.68
2019-03-17T14:45:13.971Z,24.64
2019-03-17T14:46:48.240Z,24.57
2019-03-17T14:48:22.462Z,24.56
2019-03-17T14:49:56.753Z,24.57
2019-03-17T14:51:31.038Z,24.50
2019-03-17T14:53:05.329Z,24.48
2019-03-17T14:54:39.589Z,24.47
2019-03-17T14:56:13.869Z,24.48
2019-03-17T14:57:48.153Z,24.49
2019-03-17T14:59:22.490Z,24.44
2019-03-17T15:00:56.738Z,24.44
2019-03-17T15:02:30.932Z,24.40
2019-03-17T15:04:05.158Z,24.35
2019-03-17T15:05:39.383Z,24.30
2019-03-17T15:07:13.624Z,24.25
2019-03-17T15:08:47.928Z,24.26
2019-03-17T15:10:23.616Z,24.23
2019-03-17T15:11:57.881Z,24.23
2019-03-17T15:13:32.237Z,24.20
2019-03-17T15:15:09.413Z,24.15
2019-03-17T15:16:43.652Z,24.13
2019-03-17T15:18:17.864Z,24.10
2019-03-17T15:19:53.720Z,24.10
2019-03-17T15:21:27.954Z,24.05
2019-03-17T15:23:02.209Z,24.01
2019-03-17T15:24:36.727Z,23.98
2019-03-17T15:26:11.016Z,23.93
2019-03-17T15:27:45.283Z,23.92
2019-03-17T15:29:19.621Z,23.90
2019-03-17T15:31:09.812Z,23.86
2019-03-17T15:32:29.788Z,23.81
2019-03-17T15:34:04.009Z,23.77
2019-03-17T15:35:38.237Z,23.73
2019-03-17T15:37:12.576Z,23.71
2019-03-17T15:38:47.061Z,23.64
2019-03-17T15:40:22.291Z,23.56
2019-03-17T15:41:56.578Z,23.45
2019-03-17T15:43:30.912Z,23.38
2019-03-17T15:45:07.992Z,23.31
2019-03-17T15:46:42.297Z,23.24
2019-03-17T15:48:16.590Z,23.17
2019-03-17T15:49:50.882Z,23.12
2019-03-17T15:51:25.179Z,23.06
2019-03-17T15:52:59.446Z,22.99
2019-03-17T15:54:33.651Z,22.93
2019-03-17T15:56:07.996Z,22.87
2019-03-17T15:57:42.284Z,22.84
2019-03-17T15:59:16.602Z,22.77
2019-03-17T16:00:50.851Z,22.71
2019-03-17T16:02:25.177Z,22.65
2019-03-17T16:03:59.473Z,22.58
2019-03-17T16:05:33.753Z,22.53
2019-03-17T16:07:08.033Z,22.46
2019-03-17T16:08:42.306Z,22.39
2019-03-17T16:10:19.487Z,22.30
2019-03-17T16:11:53.693Z,22.22
2019-03-17T16:13:27.996Z,22.13
2019-03-17T16:15:02.360Z,22.05
2019-03-17T16:16:36.573Z,21.97
2019-03-17T16:18:10.934Z,21.89
2019-03-17T16:19:45.233Z,21.79
2019-03-17T16:21:19.496Z,21.68
2019-03-17T16:22:53.790Z,21.58
2019-03-17T16:24:28.057Z,21.50
2019-03-17T16:26:02.536Z,21.41
2019-03-17T16:27:36.834Z,21.31
2019-03-17T16:29:11.192Z,21.23
2019-03-17T16:30:45.442Z,21.14
2019-03-17T16:32:20.524Z,21.06
2019-03-17T16:33:56.040Z,20.93
2019-03-17T16:35:31.986Z,20.84
2019-03-17T16:37:08.772Z,20.74
2019-03-17T16:38:43.118Z,20.63
2019-03-17T16:40:23.626Z,20.50
2019-03-17T16:41:59.001Z,20.41
2019-03-17T16:43:33.301Z,20.32
2019-03-17T16:45:12.892Z,20.25
2019-03-17T16:46:47.251Z,20.18
2019-03-17T16:48:21.538Z,20.13
2019-03-17T16:49:58.785Z,20.09
2019-03-17T16:51:31.833Z,20.07
2019-03-17T16:53:06.141Z,20.02
2019-03-17T16:54:40.392Z,19.97
2019-03-17T16:56:14.624Z,19.90
2019-03-17T16:57:48.835Z,19.81
2019-03-17T16:59:23.214Z,19.75
2019-03-17T17:00:57.501Z,19.63
2019-03-17T17:02:31.809Z,19.52
2019-03-17T17:04:06.107Z,19.41
2019-03-17T17:05:40.459Z,19.29
2019-03-17T17:07:14.697Z,19.19
2019-03-17T17:08:49.056Z,19.10
2019-03-17T17:10:28.067Z,19.01
2019-03-17T17:12:02.898Z,18.90
2019-03-17T17:13:37.095Z,18.83
2019-03-17T17:15:17.260Z,18.76
2019-03-17T17:16:51.569Z,18.69
2019-03-17T17:18:25.795Z,18.64
2019-03-17T17:20:00.165Z,18.60
2019-03-17T17:21:36.119Z,18.55
2019-03-17T17:23:10.324Z,18.51
2019-03-17T17:24:44.649Z,18.43
2019-03-17T17:26:19.443Z,18.34
2019-03-17T17:27:53.760Z,18.26
2019-03-17T17:29:28.003Z,18.25
2019-03-17T17:31:02.309Z,18.26
2019-03-17T17:32:36.595Z,18.25
2019-03-17T17:34:10.959Z,18.24
2019-03-17T17:35:45.247Z,18.20
2019-03-17T17:37:19.457Z,18.11
2019-03-17T17:38:53.720Z,18.00
2019-03-17T17:40:28.488Z,17.92
2019-03-17T17:42:09.017Z,17.82
2019-03-17T17:43:39.356Z,17.69
2019-03-17T17:45:17.396Z,17.55
2019-03-17T17:46:51.400Z,17.41
2019-03-17T17:48:25.746Z,17.30
2019-03-17T17:50:00.003Z,17.21
2019-03-17T17:51:34.312Z,17.15
2019-03-17T17:53:08.605Z,17.06
2019-03-17T17:54:42.855Z,16.98
2019-03-17T17:56:17.222Z,16.93
2019-03-17T17:57:53.206Z,16.85
2019-03-17T17:59:27.703Z,16.79
2019-03-17T18:01:02.017Z,16.71
2019-03-17T18:02:36.330Z,16.63
2019-03-17T18:04:10.651Z,16.58
2019-03-17T18:05:44.974Z,16.52
2019-03-17T18:07:19.288Z,16.42
2019-03-17T18:08:53.571Z,16.31
2019-03-17T18:10:27.915Z,16.20
2019-03-17T18:12:02.222Z,16.10
2019-03-17T18:13:36.578Z,16.05
2019-03-17T18:15:19.674Z,16.06
2019-03-17T18:16:53.977Z,16.08
2019-03-17T18:18:28.280Z,16.10
2019-03-17T18:20:02.612Z,16.11
2019-03-17T18:21:37.119Z,16.11
2019-03-17T18:23:17.761Z,16.12
2019-03-17T18:24:49.005Z,16.13
2019-03-17T18:26:23.363Z,16.05
2019-03-17T18:27:57.700Z,15.91
2019-03-17T18:29:33.501Z,15.78
2019-03-17T18:31:07.818Z,15.65
2019-03-17T18:32:42.121Z,15.54
2019-03-17T18:34:16.412Z,15.41
2019-03-17T18:35:50.633Z,15.30
2019-03-17T18:37:24.884Z,15.22
2019-03-17T18:38:59.113Z,15.13
2019-03-17T18:40:33.460Z,15.05
2019-03-17T18:42:07.754Z,15.00
2019-03-17T18:43:42.077Z,14.93
2019-03-17T18:45:30.839Z,14.87
2019-03-17T18:47:05.145Z,14.78
2019-03-17T18:48:39.466Z,14.71
2019-03-17T18:50:20.283Z,14.65
2019-03-17T18:51:51.187Z,14.58
2019-03-17T18:53:25.408Z,14.53
2019-03-17T18:54:59.709Z,14.50
2019-03-17T18:56:33.963Z,14.42
2019-03-17T18:58:09.895Z,14.35
2019-03-17T18:59:44.317Z,14.20
2019-03-17T19:01:19.239Z,14.08
2019-03-17T19:02:53.551Z,13.94
2019-03-17T19:04:27.781Z,13.82
2019-03-17T19:06:02.028Z,13.71
2019-03-17T19:07:36.395Z,13.60
2019-03-17T19:09:10.703Z,13.51
2019-03-17T19:10:45.031Z,13.45
2019-03-17T19:12:19.334Z,13.40
2019-03-17T19:13:53.735Z,13.34
2019-03-17T19:15:28.051Z,13.26
2019-03-17T19:17:02.352Z,13.23
2019-03-17T19:18:36.717Z,13.18
2019-03-17T19:20:15.996Z,13.16
2019-03-17T19:21:50.311Z,13.16
2019-03-17T19:23:24.620Z,13.15
2019-03-17T19:24:58.957Z,13.15
2019-03-17T19:26:33.371Z,13.18
2019-03-17T19:28:07.594Z,13.19
2019-03-17T19:29:41.917Z,13.20
2019-03-17T19:31:16.893Z,13.18
2019-03-17T19:32:51.203Z,13.16
2019-03-17T19:34:25.505Z,13.12
2019-03-17T19:35:59.735Z,13.14
2019-03-17T19:37:34.033Z,13.14
2019-03-17T19:39:08.271Z,13.11
2019-03-17T19:40:42.563Z,13.10
2019-03-17T19:42:16.859Z,13.08
2019-03-17T19:43:51.218Z,13.03
2019-03-17T19:45:25.483Z,13.02
2019-03-17T19:46:59.710Z,13.00
2019-03-17T19:48:33.931Z,12.98
2019-03-17T19:50:16.525Z,12.93
2019-03-17T19:51:50.841Z,12.90
2019-03-17T19:53:25.073Z,12.88
2019-03-17T19:54:59.390Z,12.84
2019-03-17T19:56:33.652Z,12.79
2019-03-17T19:58:07.894Z,12.74
2019-03-17T19:59:42.219Z,12.66
2019-03-17T20:01:16.534Z,12.60
2019-03-17T20:02:50.820Z,12.53
2019-03-17T20:04:30.815Z,12.52
2019-03-17T20:06:02.579Z,12.50
2019-03-17T20:07:36.815Z,12.48
2019-03-17T20:09:11.186Z,12.46
2019-03-17T20:10:45.483Z,12.42
2019-03-17T20:12:19.793Z,12.40
2019-03-17T20:13:54.082Z,12.36
2019-03-17T20:15:28.287Z,12.29
2019-03-17T20:17:04.008Z,12.19
2019-03-17T20:18:41.251Z,12.12